Time;durP1;ratioP1;P1;durP2;ratioP2;P2;SDS_P1;SDS_P2;PMS_P1;PMS_P2;Temp;Humidity;BMP_temperature;BMP_pressure;BME280_temperature;BME280_humidity;BME280_pressure;Samples;Min_cycle;Max_cycle;Signal;HPM_P1;HPM_P2
2022/05/09 00:00:08;;;;;;;12.93;7.20;;;;;;;;;;5042609;28;20048;-64
2022/05/09 00:02:54;;;;;;;12.85;6.93;;;;;;;;;;5041098;28;20493;-63
2022/05/09 00:05:24;;;;;;;13.93;5.78;;;;;;;;;;5041345;28;20052;-64
2022/05/09 00:07:51;;;;;;;10.60;6.60;;;;;;;;;;5044703;28;20051;-65
2022/05/09 00:10:19;;;;;;;10.48;6.65;;;;;;;;;;5044753;28;20051;-65
2022/05/09 00:12:46;;;;;;;12.05;6.55;;;;;;;;;;5039035;28;20037;-65
2022/05/09 00:15:14;;;;;;;12.63;6.47;;;;;;;;;;5039827;28;20052;-63
2022/05/09 00:17:40;;;;;;;10.45;6.47;;;;;;;;;;5047673;28;20045;-64
2022/05/09 00:20:07;;;;;;;10.88;6.47;;;;;;;;;;5038494;28;20105;-63
2022/05/09 00:22:48;;;;;;;12.18;6.50;;;;;;;;;;5051042;28;20041;-65
2022/05/09 00:25:14;;;;;;;9.30;6.57;;;;;;;;;;5046114;28;20055;-65
2022/05/09 00:27:40;;;;;;;13.57;6.30;;;;;;;;;;5034222;28;20543;-64
2022/05/09 00:30:07;;;;;;;11.50;6.43;;;;;;;;;;5035764;28;20644;-65
2022/05/09 00:32:32;;;;;;;9.55;6.30;;;;;;;;;;5049282;28;20131;-63
2022/05/09 00:34:58;;;;;;;9.48;6.03;;;;;;;;;;5047277;28;20049;-65
2022/05/09 00:37:24;;;;;;;14.35;6.45;;;;;;;;;;5041198;28;20132;-65
2022/05/09 00:39:50;;;;;;;10.13;5.75;;;;;;;;;;5044484;28;20493;-63
2022/05/09 00:42:16;;;;;;;8.52;5.55;;;;;;;;;;5034294;28;20049;-64
2022/05/09 00:44:42;;;;;;;10.32;5.75;;;;;;;;;;5032440;28;20042;-64
2022/05/09 00:47:08;;;;;;;10.60;6.13;;;;;;;;;;5046241;28;20161;-62
2022/05/09 00:49:45;;;;;;;9.93;6.03;;;;;;;;;;5044060;28;20053;-64
2022/05/09 00:52:23;;;;;;;12.07;5.97;;;;;;;;;;5041305;28;20049;-68
2022/05/09 00:55:00;;;;;;;13.65;6.15;;;;;;;;;;5031391;28;20045;-66
2022/05/09 00:57:33;;;;;;;10.25;6.20;;;;;;;;;;5046631;28;20045;-63
2022/05/09 01:00:07;;;;;;;10.52;6.43;;;;;;;;;;5046626;28;20052;-63
2022/05/09 01:02:34;;;;;;;10.27;5.82;;;;;;;;;;5041293;28;20038;-64
2022/05/09 01:05:01;;;;;;;11.57;6.45;;;;;;;;;;5036990;28;20124;-64
2022/05/09 01:07:30;;;;;;;18.77;6.85;;;;;;;;;;5042570;28;20556;-63
2022/05/09 01:09:57;;;;;;;15.27;6.28;;;;;;;;;;5045896;28;20045;-65
2022/05/09 01:12:31;;;;;;;15.05;6.55;;;;;;;;;;5044465;28;20397;-63
2022/05/09 01:15:00;;;;;;;11.85;6.57;;;;;;;;;;5041543;28;20050;-66
2022/05/09 01:17:27;;;;;;;11.43;6.35;;;;;;;;;;5041116;28;20045;-63
2022/05/09 01:19:55;;;;;;;11.85;6.10;;;;;;;;;;5038783;28;20447;-64
2022/05/09 01:22:25;;;;;;;11.32;6.90;;;;;;;;;;5041491;28;20337;-67
2022/05/09 01:24:53;;;;;;;10.90;6.28;;;;;;;;;;5043532;28;20047;-63
2022/05/09 01:27:19;;;;;;;12.57;6.28;;;;;;;;;;5045115;28;20531;-64
2022/05/09 01:29:54;;;;;;;13.30;7.28;;;;;;;;;;5039606;28;20051;-64
2022/05/09 01:32:53;;;;;;;14.40;7.57;;;;;;;;;;5047864;28;20049;-64
2022/05/09 01:35:45;;;;;;;11.23;6.97;;;;;;;;;;5043785;28;20033;-64
2022/05/09 01:38:22;;;;;;;11.05;6.40;;;;;;;;;;5048903;28;20673;-63
2022/05/09 01:40:47;;;;;;;12.95;7.13;;;;;;;;;;5043558;28;20048;-64
2022/05/09 01:43:13;;;;;;;11.93;6.60;;;;;;;;;;5039506;28;20049;-63
2022/05/09 01:45:39;;;;;;;11.77;7.03;;;;;;;;;;5039857;28;20050;-63
2022/05/09 01:50:50;;;;;;;11.05;6.78;;;;;;;;;;5038466;28;20080;-63
2022/05/09 01:53:16;;;;;;;16.13;7.43;;;;;;;;;;5038363;28;20173;-64
2022/05/09 01:55:42;;;;;;;11.98;7.35;;;;;;;;;;5041624;28;20064;-63
2022/05/09 01:58:08;;;;;;;13.63;7.50;;;;;;;;;;5044331;28;20041;-63
2022/05/09 02:00:33;;;;;;;13.77;7.25;;;;;;;;;;5039103;28;20049;-64
2022/05/09 02:03:00;;;;;;;12.68;7.10;;;;;;;;;;5042484;28;20126;-63
2022/05/09 02:05:26;;;;;;;19.65;7.13;;;;;;;;;;5042780;28;20067;-64
2022/05/09 02:07:53;;;;;;;12.57;6.65;;;;;;;;;;5048997;28;20052;-65
2022/05/09 02:10:19;;;;;;;12.00;6.68;;;;;;;;;;5043798;28;20129;-64
2022/05/09 02:12:45;;;;;;;13.93;7.18;;;;;;;;;;5045759;28;20098;-64
2022/05/09 02:15:11;;;;;;;13.77;7.15;;;;;;;;;;5041448;28;20049;-65
2022/05/09 02:17:38;;;;;;;15.88;7.47;;;;;;;;;;5042062;28;20234;-61
2022/05/09 02:20:05;;;;;;;19.60;7.85;;;;;;;;;;5031723;28;20071;-65
2022/05/09 02:22:32;;;;;;;16.00;7.05;;;;;;;;;;5049139;28;20515;-64
2022/05/09 02:24:58;;;;;;;16.33;7.07;;;;;;;;;;5045574;28;20273;-64
2022/05/09 02:27:24;;;;;;;17.92;6.90;;;;;;;;;;5050675;28;20103;-63
2022/05/09 02:29:50;;;;;;;12.48;6.60;;;;;;;;;;5033228;28;20042;-63
2022/05/09 02:32:16;;;;;;;15.48;6.97;;;;;;;;;;5041966;28;20416;-63
2022/05/09 02:34:43;;;;;;;15.07;7.20;;;;;;;;;;5040512;28;20408;-63
2022/05/09 02:37:09;;;;;;;14.48;6.28;;;;;;;;;;5040799;28;20465;-65
2022/05/09 02:39:35;;;;;;;15.30;6.35;;;;;;;;;;5036794;28;20065;-64
2022/05/09 02:42:01;;;;;;;15.10;6.22;;;;;;;;;;5030417;28;20072;-63
2022/05/09 02:44:28;;;;;;;14.32;6.13;;;;;;;;;;5034959;28;20471;-65
2022/05/09 02:46:53;;;;;;;11.30;6.03;;;;;;;;;;5036915;28;20069;-63
2022/05/09 02:49:19;;;;;;;17.67;6.13;;;;;;;;;;5032441;28;20092;-62
2022/05/09 02:51:48;;;;;;;12.85;6.10;;;;;;;;;;5040801;28;20041;-65
2022/05/09 02:54:14;;;;;;;15.07;6.43;;;;;;;;;;5043600;28;20144;-67
2022/05/09 02:56:40;;;;;;;10.82;6.00;;;;;;;;;;5034151;28;20569;-64
2022/05/09 02:59:06;;;;;;;11.63;5.93;;;;;;;;;;5046320;28;20045;-64
2022/05/09 03:01:31;;;;;;;9.85;5.47;;;;;;;;;;5039838;28;20171;-63
2022/05/09 03:06:42;;;;;;;12.48;6.05;;;;;;;;;;5043805;28;20049;-63
2022/05/09 03:09:08;;;;;;;11.70;6.28;;;;;;;;;;5044032;28;20570;-64
2022/05/09 03:11:33;;;;;;;8.55;5.35;;;;;;;;;;5039146;28;20045;-64
2022/05/09 03:13:59;;;;;;;9.20;5.82;;;;;;;;;;5045925;28;20041;-64
2022/05/09 03:16:25;;;;;;;18.63;5.95;;;;;;;;;;5041394;28;20491;-63
2022/05/09 03:18:51;;;;;;;12.75;5.78;;;;;;;;;;5042999;28;20120;-64
2022/05/09 03:21:17;;;;;;;11.82;6.47;;;;;;;;;;5043151;28;20041;-64
2022/05/09 03:23:43;;;;;;;10.63;7.00;;;;;;;;;;5040817;28;20057;-65
2022/05/09 03:26:09;;;;;;;17.30;7.85;;;;;;;;;;5047273;28;20132;-65
2022/05/09 03:28:35;;;;;;;12.43;8.45;;;;;;;;;;5039501;28;20041;-65
2022/05/09 03:31:01;;;;;;;14.32;7.82;;;;;;;;;;5043180;28;20081;-65
2022/05/09 03:33:27;;;;;;;12.57;8.60;;;;;;;;;;5042995;28;20063;-64
2022/05/09 03:35:54;;;;;;;14.25;9.35;;;;;;;;;;5036929;28;20045;-63
2022/05/09 03:38:21;;;;;;;13.25;8.88;;;;;;;;;;5046007;28;20051;-68
2022/05/09 03:40:47;;;;;;;14.27;8.20;;;;;;;;;;5050935;28;20118;-63
2022/05/09 03:43:13;;;;;;;11.95;8.98;;;;;;;;;;5036191;28;20188;-63
2022/05/09 03:45:41;;;;;;;11.02;7.85;;;;;;;;;;5038001;28;20048;-64
2022/05/09 03:48:08;;;;;;;11.55;7.47;;;;;;;;;;5049764;28;20045;-64
2022/05/09 03:50:34;;;;;;;9.25;7.07;;;;;;;;;;5041778;28;20076;-63
2022/05/09 03:53:00;;;;;;;10.77;6.97;;;;;;;;;;5037883;28;20456;-64
2022/05/09 03:55:25;;;;;;;11.38;6.65;;;;;;;;;;5044990;28;20053;-63
2022/05/09 03:57:55;;;;;;;11.48;6.72;;;;;;;;;;5045527;28;20041;-63
2022/05/09 04:00:24;;;;;;;13.05;6.32;;;;;;;;;;5041415;28;20407;-65
2022/05/09 04:02:51;;;;;;;11.13;5.72;;;;;;;;;;5044063;28;20049;-65
2022/05/09 04:05:17;;;;;;;10.50;5.80;;;;;;;;;;5045276;28;20056;-63
2022/05/09 04:07:46;;;;;;;10.57;6.15;;;;;;;;;;5038206;28;20565;-64
2022/05/09 04:10:13;;;;;;;10.93;5.72;;;;;;;;;;5041664;28;20045;-64
2022/05/09 04:12:40;;;;;;;13.05;6.00;;;;;;;;;;5038837;28;20069;-65
2022/05/09 04:17:52;;;;;;;11.48;5.50;;;;;;;;;;5044580;28;20500;-64
2022/05/09 04:20:18;;;;;;;9.77;6.07;;;;;;;;;;5040369;28;20045;-63
2022/05/09 04:22:44;;;;;;;8.95;5.88;;;;;;;;;;5044508;28;20045;-63
2022/05/09 04:25:10;;;;;;;9.02;5.63;;;;;;;;;;5045692;28;20048;-62
2022/05/09 04:27:36;;;;;;;12.30;6.03;;;;;;;;;;5041799;28;20046;-64
2022/05/09 04:30:03;;;;;;;9.95;5.60;;;;;;;;;;5041018;28;20049;-62
2022/05/09 04:32:28;;;;;;;10.32;5.95;;;;;;;;;;5032784;28;20052;-64
2022/05/09 04:34:54;;;;;;;11.60;5.80;;;;;;;;;;5041781;28;20063;-64
2022/05/09 04:37:20;;;;;;;11.65;5.88;;;;;;;;;;5042738;28;20108;-67
2022/05/09 04:39:48;;;;;;;12.00;6.00;;;;;;;;;;5042968;28;20053;-63
2022/05/09 04:42:14;;;;;;;13.38;5.95;;;;;;;;;;5041914;28;20593;-65
2022/05/09 04:44:40;;;;;;;9.82;6.18;;;;;;;;;;5044983;28;20069;-63
2022/05/09 04:47:07;;;;;;;13.25;6.75;;;;;;;;;;5041916;28;20045;-63
2022/05/09 04:49:33;;;;;;;9.30;6.53;;;;;;;;;;5045113;28;20067;-63
2022/05/09 04:51:59;;;;;;;9.82;6.80;;;;;;;;;;5044590;28;20049;-64
2022/05/09 04:54:25;;;;;;;13.70;6.50;;;;;;;;;;5040556;28;20408;-62
2022/05/09 04:56:51;;;;;;;8.93;5.97;;;;;;;;;;5041396;28;20545;-66
2022/05/09 04:59:17;;;;;;;13.95;6.47;;;;;;;;;;5045720;28;20255;-65
2022/05/09 05:01:42;;;;;;;14.13;6.60;;;;;;;;;;5045316;28;20579;-64
2022/05/09 05:04:10;;;;;;;9.60;6.68;;;;;;;;;;5042656;28;20048;-62
2022/05/09 05:06:36;;;;;;;13.07;6.35;;;;;;;;;;5040959;28;20143;-64
2022/05/09 05:09:02;;;;;;;11.38;7.05;;;;;;;;;;5043117;28;20187;-63
2022/05/09 05:11:29;;;;;;;10.85;6.63;;;;;;;;;;5044751;28;20044;-61
2022/05/09 05:13:54;;;;;;;10.38;6.47;;;;;;;;;;5040848;28;20365;-63
2022/05/09 05:16:59;;;;;;;13.32;6.63;;;;;;;;;;5043782;28;20099;-67
2022/05/09 05:19:06;;;;;;;11.43;6.60;;;;;;;;;;5041108;28;20044;-64
2022/05/09 05:21:32;;;;;;;9.23;6.38;;;;;;;;;;5045314;28;20055;-63
2022/05/09 05:23:59;;;;;;;10.23;6.20;;;;;;;;;;5042816;28;20041;-65
2022/05/09 05:26:25;;;;;;;13.32;6.03;;;;;;;;;;5040527;28;20052;-63
2022/05/09 05:28:51;;;;;;;11.15;6.22;;;;;;;;;;5042760;28;20049;-63
2022/05/09 05:31:20;;;;;;;14.35;6.65;;;;;;;;;;5043149;28;20080;-61
2022/05/09 05:33:47;;;;;;;18.48;6.38;;;;;;;;;;5037367;28;20053;-62
2022/05/09 05:36:14;;;;;;;13.48;6.28;;;;;;;;;;5040603;28;20048;-62
2022/05/09 05:38:40;;;;;;;11.10;5.97;;;;;;;;;;5036276;28;20048;-63
2022/05/09 05:41:06;;;;;;;12.32;5.50;;;;;;;;;;5041153;28;20619;-62
2022/05/09 05:43:31;;;;;;;16.73;6.30;;;;;;;;;;5040538;28;20139;-64
2022/05/09 05:45:57;;;;;;;13.75;6.63;;;;;;;;;;5037654;28;20076;-63
2022/05/09 05:48:26;;;;;;;9.52;6.25;;;;;;;;;;5036751;28;20045;-65
2022/05/09 05:50:52;;;;;;;12.93;6.10;;;;;;;;;;5040690;28;20033;-63
2022/05/09 05:53:19;;;;;;;13.82;6.18;;;;;;;;;;5044218;28;20556;-63
2022/05/09 05:55:45;;;;;;;13.07;6.05;;;;;;;;;;5043580;28;20048;-61
2022/05/09 05:58:11;;;;;;;11.80;5.93;;;;;;;;;;5035186;28;20457;-62
2022/05/09 06:00:37;;;;;;;9.93;5.53;;;;;;;;;;5035646;28;20052;-63
2022/05/09 06:03:04;;;;;;;11.73;5.40;;;;;;;;;;5041321;28;20084;-67
2022/05/09 06:05:29;;;;;;;9.55;5.32;;;;;;;;;;5045346;28;20076;-62
2022/05/09 06:07:56;;;;;;;12.50;6.38;;;;;;;;;;5031268;28;20523;-63
2022/05/09 06:10:23;;;;;;;16.33;5.70;;;;;;;;;;5038375;28;20041;-61
2022/05/09 06:12:49;;;;;;;13.82;8.02;;;;;;;;;;5038714;28;20057;-65
2022/05/09 06:15:25;;;;;;;13.95;7.22;;;;;;;;;;5039059;28;20539;-61
2022/05/09 06:17:51;;;;;;;10.05;7.20;;;;;;;;;;5046449;28;20057;-63
2022/05/09 06:20:18;;;;;;;11.18;6.55;;;;;;;;;;5031189;28;20049;-63
2022/05/09 06:22:44;;;;;;;9.57;5.90;;;;;;;;;;5047095;28;20117;-66
2022/05/09 06:25:16;;;;;;;13.13;6.22;;;;;;;;;;5041272;28;20103;-63
2022/05/09 06:27:42;;;;;;;15.75;7.10;;;;;;;;;;5043016;28;20048;-66
2022/05/09 06:30:11;;;;;;;18.75;6.18;;;;;;;;;;5040140;28;20146;-63
2022/05/09 06:32:37;;;;;;;14.27;6.00;;;;;;;;;;5045016;28;20059;-63
2022/05/09 06:35:06;;;;;;;11.85;6.38;;;;;;;;;;5038694;28;20045;-64
2022/05/09 06:37:33;;;;;;;12.52;6.57;;;;;;;;;;5035933;28;20101;-62
2022/05/09 06:40:00;;;;;;;13.63;7.15;;;;;;;;;;5038536;28;20104;-65
2022/05/09 06:42:27;;;;;;;15.70;7.32;;;;;;;;;;5037492;28;20124;-62
2022/05/09 06:44:54;;;;;;;18.42;7.00;;;;;;;;;;5036733;28;20053;-61
2022/05/09 06:47:20;;;;;;;14.18;6.65;;;;;;;;;;5043099;28;20041;-62
2022/05/09 06:49:46;;;;;;;19.48;6.82;;;;;;;;;;5044636;28;20033;-61
2022/05/09 06:52:12;;;;;;;11.48;7.30;;;;;;;;;;5045023;28;20502;-61
2022/05/09 06:54:39;;;;;;;12.75;6.63;;;;;;;;;;5044546;28;20068;-63
2022/05/09 06:57:05;;;;;;;13.48;6.30;;;;;;;;;;5047303;28;20064;-62
2022/05/09 06:59:32;;;;;;;13.57;6.18;;;;;;;;;;5028538;28;20091;-62
2022/05/09 07:01:59;;;;;;;10.63;6.25;;;;;;;;;;5029235;28;20045;-66
2022/05/09 07:04:25;;;;;;;15.00;6.65;;;;;;;;;;5029934;28;20057;-64
2022/05/09 07:06:51;;;;;;;15.02;6.70;;;;;;;;;;5035486;28;20350;-63
2022/05/09 07:09:16;;;;;;;18.00;6.30;;;;;;;;;;5046551;28;20571;-64
2022/05/09 07:11:43;;;;;;;12.80;5.88;;;;;;;;;;5043610;28;20420;-63
2022/05/09 07:14:10;;;;;;;18.10;6.15;;;;;;;;;;5028083;28;20041;-63
2022/05/09 07:16:36;;;;;;;19.25;6.30;;;;;;;;;;5028500;28;20092;-64
2022/05/09 07:19:04;;;;;;;17.48;6.82;;;;;;;;;;5032138;28;20045;-65
2022/05/09 07:21:31;;;;;;;17.33;6.40;;;;;;;;;;5044541;28;20111;-65
2022/05/09 07:23:58;;;;;;;12.85;5.57;;;;;;;;;;5045244;28;20083;-65
2022/05/09 07:26:24;;;;;;;13.27;6.43;;;;;;;;;;5043706;28;20048;-68
2022/05/09 07:28:50;;;;;;;12.65;5.93;;;;;;;;;;5033086;28;20448;-64
2022/05/09 07:31:16;;;;;;;12.77;5.20;;;;;;;;;;5040085;28;20416;-64
2022/05/09 07:33:43;;;;;;;9.52;5.00;;;;;;;;;;5036698;28;20052;-64
2022/05/09 07:36:09;;;;;;;12.18;6.05;;;;;;;;;;5041265;28;20061;-63
2022/05/09 07:38:35;;;;;;;13.20;5.90;;;;;;;;;;5041973;28;20045;-63
2022/05/09 07:41:01;;;;;;;13.55;5.90;;;;;;;;;;5041466;28;20053;-61
2022/05/09 07:43:29;;;;;;;12.15;5.03;;;;;;;;;;5041208;28;20049;-62
2022/05/09 07:45:56;;;;;;;9.88;5.03;;;;;;;;;;5038290;28;20041;-63
2022/05/09 07:48:24;;;;;;;10.23;5.45;;;;;;;;;;5047665;28;20492;-62
2022/05/09 07:50:52;;;;;;;10.70;5.00;;;;;;;;;;5047242;28;20139;-63
2022/05/09 07:53:22;;;;;;;12.35;5.43;;;;;;;;;;5047948;28;20485;-61
2022/05/09 07:55:48;;;;;;;11.18;5.20;;;;;;;;;;5053410;28;20415;-64
2022/05/09 07:58:14;;;;;;;11.05;5.18;;;;;;;;;;5045433;28;20044;-63
2022/05/09 08:00:42;;;;;;;13.70;5.20;;;;;;;;;;5051882;28;20444;-63
2022/05/09 08:03:14;;;;;;;12.00;5.28;;;;;;;;;;5044600;28;20478;-65
2022/05/09 08:05:40;;;;;;;9.57;5.00;;;;;;;;;;5046266;28;20049;-66
2022/05/09 08:08:06;;;;;;;11.30;5.10;;;;;;;;;;5041249;28;20404;-68
2022/05/09 08:10:32;;;;;;;8.80;5.30;;;;;;;;;;5046138;28;20041;-65
2022/05/09 08:12:58;;;;;;;8.98;5.30;;;;;;;;;;5049506;28;20663;-65
2022/05/09 08:15:26;;;;;;;11.63;5.65;;;;;;;;;;5043399;28;20071;-63
2022/05/09 08:17:52;;;;;;;7.82;5.22;;;;;;;;;;5049334;28;20048;-64
2022/05/09 08:20:19;;;;;;;7.97;5.18;;;;;;;;;;5047243;28;20049;-66
2022/05/09 08:22:46;;;;;;;9.73;5.88;;;;;;;;;;5043716;28;20045;-65
2022/05/09 08:25:14;;;;;;;9.95;5.38;;;;;;;;;;5048890;28;20052;-64
2022/05/09 08:27:41;;;;;;;9.82;5.47;;;;;;;;;;5048645;28;20053;-64
2022/05/09 08:30:08;;;;;;;16.92;5.88;;;;;;;;;;5049664;28;20075;-63
2022/05/09 08:32:36;;;;;;;12.85;5.80;;;;;;;;;;5049580;28;20049;-65
2022/05/09 08:35:03;;;;;;;9.65;5.70;;;;;;;;;;5050290;28;20515;-64
2022/05/09 08:37:29;;;;;;;9.43;5.35;;;;;;;;;;5051347;28;20067;-68
2022/05/09 08:39:55;;;;;;;10.20;5.30;;;;;;;;;;5042544;28;20072;-64
2022/05/09 08:42:37;;;;;;;10.13;5.78;;;;;;;;;;5043598;28;20045;-65
2022/05/09 08:45:16;;;;;;;7.95;5.18;;;;;;;;;;5047624;28;20496;-67
2022/05/09 08:47:54;;;;;;;8.73;4.55;;;;;;;;;;5049443;28;20539;-67
2022/05/09 08:50:41;;;;;;;9.85;4.72;;;;;;;;;;5029967;28;20057;-64
2022/05/09 08:53:16;;;;;;;10.18;4.53;;;;;;;;;;5030054;28;20201;-65
2022/05/09 08:55:44;;;;;;;13.85;5.35;;;;;;;;;;5047687;28;20094;-65
2022/05/09 08:58:37;;;;;;;9.63;4.47;;;;;;;;;;5051002;28;20057;-65
2022/05/09 09:01:13;;;;;;;9.27;5.50;;;;;;;;;;5048968;28;20404;-65
2022/05/09 09:03:45;;;;;;;12.23;5.13;;;;;;;;;;5049673;28;20071;-66
2022/05/09 09:06:38;;;;;;;8.43;4.28;;;;;;;;;;5042891;28;20045;-66
2022/05/09 09:09:11;;;;;;;10.55;3.75;;;;;;;;;;5032226;28;20211;-67
2022/05/09 09:11:53;;;;;;;12.68;4.43;;;;;;;;;;5029662;28;20498;-62
2022/05/09 09:14:43;;;;;;;14.13;5.85;;;;;;;;;;5029774;28;20049;-65
2022/05/09 09:17:24;;;;;;;10.65;4.75;;;;;;;;;;5029468;28;20053;-64
2022/05/09 09:20:16;;;;;;;10.18;4.75;;;;;;;;;;5035518;28;20049;-64
2022/05/09 09:23:22;;;;;;;9.20;4.93;;;;;;;;;;5049330;28;20080;-63
2022/05/09 09:26:28;;;;;;;6.28;4.18;;;;;;;;;;5045319;28;20055;-65
2022/05/09 09:29:06;;;;;;;10.07;4.88;;;;;;;;;;5036200;28;20053;-64
2022/05/09 09:31:36;;;;;;;13.48;5.88;;;;;;;;;;5049151;28;20049;-64
2022/05/09 09:34:17;;;;;;;10.88;5.60;;;;;;;;;;5051961;28;20591;-66
2022/05/09 09:36:54;;;;;;;11.32;5.43;;;;;;;;;;5049529;28;20049;-66
2022/05/09 09:39:20;;;;;;;9.00;4.47;;;;;;;;;;5047832;28;20080;-65
2022/05/09 09:41:48;;;;;;;9.43;4.80;;;;;;;;;;5048578;28;20049;-67
2022/05/09 09:44:18;;;;;;;9.07;5.10;;;;;;;;;;5036878;28;20049;-66
2022/05/09 09:47:02;;;;;;;9.13;5.25;;;;;;;;;;5043211;28;20120;-66
2022/05/09 09:49:28;;;;;;;7.07;5.03;;;;;;;;;;5039892;28;20057;-67
2022/05/09 09:51:54;;;;;;;14.65;5.70;;;;;;;;;;5032532;28;20443;-65
2022/05/09 09:54:27;;;;;;;9.60;5.63;;;;;;;;;;5047368;28;20053;-66
2022/05/09 09:56:54;;;;;;;8.55;5.70;;;;;;;;;;5034153;28;20535;-64
2022/05/09 09:59:24;;;;;;;8.52;5.15;;;;;;;;;;5030191;28;20942;-66
2022/05/09 10:02:21;;;;;;;11.38;6.03;;;;;;;;;;5035385;28;20056;-66
2022/05/09 10:04:48;;;;;;;9.57;6.10;;;;;;;;;;5029815;28;20061;-65
2022/05/09 10:07:35;;;;;;;11.05;5.88;;;;;;;;;;5030860;28;20045;-66
2022/05/09 10:10:23;;;;;;;12.43;5.60;;;;;;;;;;5047525;28;20041;-66
2022/05/09 10:12:52;;;;;;;9.88;4.85;;;;;;;;;;5041238;28;20052;-65
2022/05/09 10:15:26;;;;;;;14.25;7.30;;;;;;;;;;5047426;28;20049;-67
2022/05/09 10:17:52;;;;;;;10.55;5.50;;;;;;;;;;5042297;28;20048;-64
2022/05/09 10:20:39;;;;;;;14.30;7.90;;;;;;;;;;5044817;28;20056;-65
2022/05/09 10:26:29;;;;;;;10.75;5.28;;;;;;;;;;5043949;28;20163;-65
2022/05/09 10:29:01;;;;;;;8.85;5.10;;;;;;;;;;5037053;28;20048;-66
2022/05/09 10:31:31;;;;;;;6.85;4.20;;;;;;;;;;5047640;28;20599;-64
2022/05/09 10:34:38;;;;;;;9.95;4.45;;;;;;;;;;5041781;28;20514;-64
2022/05/09 10:37:08;;;;;;;12.48;4.60;;;;;;;;;;5048412;28;20056;-62
2022/05/09 10:39:39;;;;;;;12.10;4.82;;;;;;;;;;5041797;28;20144;-64
2022/05/09 10:42:07;;;;;;;7.75;4.60;;;;;;;;;;5043859;28;20060;-63
2022/05/09 10:44:34;;;;;;;9.70;4.15;;;;;;;;;;5044914;28;20118;-62
2022/05/09 10:47:40;;;;;;;10.95;4.28;;;;;;;;;;5036624;28;20041;-63
2022/05/09 10:50:09;;;;;;;7.10;4.25;;;;;;;;;;5044133;28;20045;-63
2022/05/09 10:52:43;;;;;;;7.25;4.72;;;;;;;;;;5046260;28;20071;-62
2022/05/09 10:55:20;;;;;;;9.50;4.65;;;;;;;;;;5043975;28;20060;-65
2022/05/09 10:57:59;;;;;;;6.57;4.28;;;;;;;;;;5037793;28;20148;-68
2022/05/09 11:00:27;;;;;;;6.25;4.15;;;;;;;;;;5040699;28;20049;-62
2022/05/09 11:03:19;;;;;;;11.73;5.43;;;;;;;;;;5038413;28;20265;-63
2022/05/09 11:06:09;;;;;;;7.57;4.43;;;;;;;;;;5047283;28;20555;-63
2022/05/09 11:08:55;;;;;;;11.82;4.63;;;;;;;;;;5040879;28;20420;-64
2022/05/09 11:11:50;;;;;;;7.40;4.38;;;;;;;;;;5039028;28;20083;-64
2022/05/09 11:14:30;;;;;;;9.82;4.40;;;;;;;;;;5044888;28;20090;-63
2022/05/09 11:17:24;;;;;;;9.27;4.45;;;;;;;;;;5045621;28;20112;-65
2022/05/09 11:20:08;;;;;;;11.68;4.82;;;;;;;;;;5040894;28;20125;-65
2022/05/09 11:22:38;;;;;;;11.80;4.38;;;;;;;;;;5048151;28;20052;-64
2022/05/09 11:25:28;;;;;;;5.70;3.53;;;;;;;;;;5048465;28;20105;-64
2022/05/09 11:27:54;;;;;;;7.30;4.60;;;;;;;;;;5049332;28;20371;-65
2022/05/09 11:30:47;;;;;;;9.77;4.45;;;;;;;;;;5046954;28;20721;-69
2022/05/09 11:33:15;;;;;;;6.25;4.00;;;;;;;;;;5049154;28;20063;-64
2022/05/09 11:35:41;;;;;;;12.13;4.38;;;;;;;;;;5049834;28;20041;-67
2022/05/09 11:38:26;;;;;;;11.25;4.20;;;;;;;;;;5051854;28;20446;-64
2022/05/09 11:41:21;;;;;;;12.43;4.13;;;;;;;;;;5053671;28;20057;-63
2022/05/09 11:43:57;;;;;;;14.27;4.53;;;;;;;;;;5049600;28;20044;-68
2022/05/09 11:46:44;;;;;;;14.50;4.18;;;;;;;;;;5052229;28;20059;-63
2022/05/09 11:49:27;;;;;;;11.48;4.00;;;;;;;;;;5049166;28;20049;-65
2022/05/09 11:51:57;;;;;;;26.90;5.07;;;;;;;;;;5054103;28;20061;-62
2022/05/09 11:54:28;;;;;;;14.32;5.03;;;;;;;;;;5043453;28;20060;-64
2022/05/09 11:57:01;;;;;;;11.00;4.65;;;;;;;;;;5044999;28;20447;-64
2022/05/09 11:59:37;;;;;;;10.20;4.13;;;;;;;;;;5039225;28;20057;-66
2022/05/09 12:02:12;;;;;;;15.55;4.63;;;;;;;;;;5048642;28;20078;-66
2022/05/09 12:04:48;;;;;;;9.38;4.05;;;;;;;;;;5048856;28;20136;-65
2022/05/09 12:07:23;;;;;;;11.75;4.00;;;;;;;;;;5043189;28;20488;-64
2022/05/09 12:09:56;;;;;;;8.30;4.03;;;;;;;;;;5050831;28;20194;-62
2022/05/09 12:12:37;;;;;;;10.90;4.70;;;;;;;;;;5052257;28;20052;-63
2022/05/09 12:15:16;;;;;;;10.23;4.22;;;;;;;;;;5050315;28;20045;-64
2022/05/09 12:17:53;;;;;;;8.35;4.55;;;;;;;;;;5048282;28;20124;-62
2022/05/09 12:20:25;;;;;;;11.45;4.88;;;;;;;;;;5045991;28;20091;-61
2022/05/09 12:22:52;;;;;;;13.30;4.68;;;;;;;;;;5043639;28;20049;-62
2022/05/09 12:25:33;;;;;;;14.10;5.40;;;;;;;;;;5046005;28;20223;-63
2022/05/09 12:28:18;;;;;;;15.02;4.88;;;;;;;;;;5039895;28;20094;-61
2022/05/09 12:30:53;;;;;;;16.02;4.90;;;;;;;;;;5036455;28;20045;-61
2022/05/09 12:33:54;;;;;;;12.25;4.40;;;;;;;;;;5047782;28;20202;-67
2022/05/09 12:36:29;;;;;;;11.18;4.00;;;;;;;;;;5043311;28;20154;-65
2022/05/09 12:39:25;;;;;;;11.18;4.85;;;;;;;;;;5045888;28;20049;-63
2022/05/09 12:41:56;;;;;;;10.90;4.47;;;;;;;;;;5053298;28;20049;-62
2022/05/09 12:44:22;;;;;;;19.27;5.05;;;;;;;;;;5048744;28;20041;-64
2022/05/09 12:47:01;;;;;;;19.73;5.13;;;;;;;;;;5041643;28;20055;-62
2022/05/09 12:49:36;;;;;;;10.35;4.68;;;;;;;;;;5055216;28;20120;-66
2022/05/09 12:52:03;;;;;;;12.77;4.13;;;;;;;;;;5045166;28;20045;-65
2022/05/09 12:54:30;;;;;;;15.25;4.03;;;;;;;;;;5048117;28;20599;-63
2022/05/09 12:56:59;;;;;;;12.60;4.80;;;;;;;;;;5042922;28;20072;-61
2022/05/09 12:59:27;;;;;;;10.05;4.13;;;;;;;;;;5045023;28;20533;-64
2022/05/09 13:01:58;;;;;;;9.68;3.80;;;;;;;;;;5040779;28;20113;-65
2022/05/09 13:04:26;;;;;;;10.18;3.83;;;;;;;;;;5049194;28;20056;-66
2022/05/09 13:07:01;;;;;;;11.52;4.57;;;;;;;;;;5046842;28;20044;-65
2022/05/09 13:09:44;;;;;;;9.55;4.22;;;;;;;;;;5046943;28;20104;-63
2022/05/09 13:12:24;;;;;;;9.50;4.40;;;;;;;;;;5045042;28;20103;-64
2022/05/09 13:14:55;;;;;;;10.80;4.28;;;;;;;;;;5046935;28;20135;-64
2022/05/09 13:17:39;;;;;;;10.35;4.15;;;;;;;;;;5046867;28;20451;-63
2022/05/09 13:20:12;;;;;;;11.27;4.05;;;;;;;;;;5041725;28;20049;-63
2022/05/09 13:22:57;;;;;;;13.43;4.20;;;;;;;;;;5048083;28;20049;-66
2022/05/09 13:25:39;;;;;;;11.10;4.45;;;;;;;;;;5043467;28;20045;-64
2022/05/09 13:28:13;;;;;;;13.52;4.38;;;;;;;;;;5035553;28;20128;-63
2022/05/09 13:30:56;;;;;;;9.93;3.75;;;;;;;;;;5048115;28;20732;-65
2022/05/09 13:33:25;;;;;;;13.25;4.40;;;;;;;;;;5041690;28;20446;-64
2022/05/09 13:35:56;;;;;;;10.60;4.32;;;;;;;;;;5045506;28;20043;-64
2022/05/09 13:38:38;;;;;;;10.75;4.60;;;;;;;;;;5041714;28;20045;-66
2022/05/09 13:41:19;;;;;;;16.48;4.50;;;;;;;;;;5040400;28;20095;-67
2022/05/09 13:43:54;;;;;;;12.38;4.30;;;;;;;;;;5035292;28;20049;-65
2022/05/09 13:46:40;;;;;;;13.52;4.40;;;;;;;;;;5044447;28;20132;-65
2022/05/09 13:49:12;;;;;;;8.85;3.90;;;;;;;;;;5032695;28;20559;-64
2022/05/09 13:51:58;;;;;;;8.68;4.32;;;;;;;;;;5044977;28;20053;-65
2022/05/09 13:54:27;;;;;;;11.32;4.10;;;;;;;;;;5044366;28;20701;-63
2022/05/09 13:57:15;;;;;;;20.75;4.60;;;;;;;;;;5047340;28;20085;-62
2022/05/09 13:59:43;;;;;;;11.75;4.30;;;;;;;;;;5042665;28;20413;-65
2022/05/09 14:02:12;;;;;;;10.93;4.30;;;;;;;;;;5046306;28;20041;-63
2022/05/09 14:04:41;;;;;;;12.75;4.57;;;;;;;;;;5038247;28;20037;-64
2022/05/09 14:09:51;;;;;;;11.13;4.60;;;;;;;;;;5039286;28;20052;-64
2022/05/09 14:12:20;;;;;;;13.40;4.18;;;;;;;;;;5042673;28;20033;-64
2022/05/09 14:15:11;;;;;;;12.57;4.18;;;;;;;;;;5037109;28;20045;-64
2022/05/09 14:17:41;;;;;;;7.97;4.05;;;;;;;;;;5041980;28;20043;-67
2022/05/09 14:20:10;;;;;;;11.07;3.33;;;;;;;;;;5046035;28;20049;-65
2022/05/09 14:22:36;;;;;;;9.93;3.67;;;;;;;;;;5035186;28;20042;-63
2022/05/09 14:30:40;;;;;;;12.02;3.50;;;;;;;;;;5036735;28;20047;-64
2022/05/09 14:33:45;;;;;;;8.55;3.25;;;;;;;;;;5043896;28;20053;-62
2022/05/09 14:36:26;;;;;;;;;;;;;;;;;;5045246;28;20154;-63
2022/05/09 14:38:57;;;;;;;12.15;2.88;;;;;;;;;;5046039;28;20047;-63
2022/05/09 14:41:37;;;;;;;7.75;2.47;;;;;;;;;;5037073;28;20553;-67
2022/05/09 14:44:25;;;;;;;6.20;2.63;;;;;;;;;;5041253;28;20099;-65
2022/05/09 14:47:09;;;;;;;8.85;3.25;;;;;;;;;;5042531;28;20048;-64
2022/05/09 14:49:51;;;;;;;9.93;3.35;;;;;;;;;;5041883;28;20075;-64
2022/05/09 14:52:37;;;;;;;6.00;2.53;;;;;;;;;;5036742;28;20050;-65
2022/05/09 14:58:15;;;;;;;6.82;2.78;;;;;;;;;;5043535;28;20045;-65
2022/05/09 15:00:43;;;;;;;4.88;2.80;;;;;;;;;;5046359;28;20037;-64
2022/05/09 15:03:19;;;;;;;6.63;2.30;;;;;;;;;;5046110;28;20036;-65
2022/05/09 15:05:45;;;;;;;7.57;2.95;;;;;;;;;;5054032;28;20041;-66
2022/05/09 15:08:11;;;;;;;8.68;3.50;;;;;;;;;;5053365;28;20049;-64
2022/05/09 15:10:39;;;;;;;7.25;3.08;;;;;;;;;;5047851;28;20124;-63
2022/05/09 15:13:05;;;;;;;6.35;2.97;;;;;;;;;;5051195;28;20046;-67
2022/05/09 15:15:31;;;;;;;8.07;3.03;;;;;;;;;;5052012;28;20088;-66
2022/05/09 15:17:57;;;;;;;8.27;3.08;;;;;;;;;;5054394;28;20088;-65
2022/05/09 15:20:22;;;;;;;7.82;3.08;;;;;;;;;;5049499;28;20041;-65